createdAt,value
2022-10-28T00:01:21.834Z,20.22
2022-10-28T00:06:34.387Z,20.22
2022-10-28T00:11:35.865Z,20.41
2022-10-28T00:16:37.901Z,20.33
2022-10-28T00:21:40.513Z,20.24
2022-10-28T00:26:42.727Z,20.32
2022-10-28T00:31:44.091Z,20.31
2022-10-28T00:36:46.021Z,20.44
2022-10-28T00:41:52.604Z,20.43
2022-10-28T00:46:54.052Z,20.48
2022-10-28T00:52:07.291Z,20.51
2022-10-28T00:57:10.853Z,20.45
2022-10-28T01:02:12.444Z,20.48
2022-10-28T01:07:14.576Z,20.51
2022-10-28T01:12:23.400Z,20.55
2022-10-28T01:18:12.970Z,20.55
2022-10-28T01:23:19.222Z,20.55
2022-10-28T01:28:46.724Z,20.51
2022-10-28T01:34:27.113Z,20.42
2022-10-28T01:39:28.399Z,20.48
2022-10-28T01:44:51.547Z,20.44
2022-10-28T01:49:56.660Z,20.44
2022-10-28T01:55:02.462Z,20.48
2022-10-28T02:00:04.449Z,20.50
2022-10-28T02:05:33.524Z,20.45
2022-10-28T02:10:37.028Z,20.49
2022-10-28T02:15:52.767Z,20.49
2022-10-28T02:21:03.159Z,20.46
2022-10-28T02:26:22.613Z,20.46
2022-10-28T02:31:26.586Z,20.48
2022-10-28T02:36:28.989Z,20.43
2022-10-28T02:41:33.663Z,20.40
2022-10-28T02:46:35.383Z,20.37
2022-10-28T02:51:38.577Z,20.33
2022-10-28T02:56:53.662Z,20.31
2022-10-28T03:01:55.225Z,20.39
2022-10-28T03:06:56.796Z,20.04
2022-10-28T03:11:58.269Z,20.38
2022-10-28T03:16:59.714Z,20.33
2022-10-28T03:22:01.160Z,20.29
2022-10-28T03:27:02.601Z,20.09
2022-10-28T03:32:04.169Z,20.22
2022-10-28T03:37:05.622Z,20.32
2022-10-28T03:42:07.070Z,20.33
2022-10-28T03:47:08.563Z,20.30
2022-10-28T03:52:10.014Z,20.34
2022-10-28T03:57:11.466Z,19.98
2022-10-28T04:02:13.175Z,20.31
2022-10-28T04:07:14.749Z,20.38
2022-10-28T04:12:16.202Z,20.31
2022-10-28T04:17:17.666Z,19.81
2022-10-28T04:22:19.127Z,20.11
2022-10-28T04:27:21.087Z,20.11
2022-10-28T04:32:22.585Z,20.14
2022-10-28T04:37:24.805Z,20.03
2022-10-28T04:42:26.277Z,19.95
2022-10-28T04:47:27.742Z,19.80
2022-10-28T04:52:29.227Z,19.66
2022-10-28T04:57:32.337Z,19.87
2022-10-28T05:02:33.783Z,19.61
2022-10-28T05:07:35.230Z,19.75
2022-10-28T05:12:36.681Z,19.90
2022-10-28T05:17:40.169Z,19.81
2022-10-28T05:22:53.716Z,19.96
2022-10-28T05:27:59.145Z,19.75
2022-10-28T05:33:02.223Z,19.83
2022-10-28T05:38:03.965Z,20.02
2022-10-28T05:43:06.428Z,19.99
2022-10-28T05:48:07.876Z,20.02
2022-10-28T05:53:09.336Z,20.03
2022-10-28T05:58:10.793Z,20.01
2022-10-28T06:03:12.353Z,20.03
2022-10-28T06:08:13.866Z,19.95
2022-10-28T06:13:13.797Z,19.88
2022-10-28T06:18:16.805Z,19.64
2022-10-28T06:23:20.841Z,19.70
2022-10-28T06:28:22.344Z,19.66
2022-10-28T06:33:23.804Z,19.52
2022-10-28T06:38:26.055Z,19.40
2022-10-28T06:43:27.365Z,19.42
2022-10-28T06:48:30.331Z,19.45
2022-10-28T06:53:31.844Z,19.57
2022-10-28T06:58:33.357Z,19.63
2022-10-28T07:03:34.822Z,19.54
2022-10-28T07:08:36.303Z,19.60
2022-10-28T07:13:37.782Z,19.64
2022-10-28T07:18:39.238Z,19.81
2022-10-28T07:23:40.720Z,19.87
2022-10-28T07:28:42.861Z,19.58
2022-10-28T07:33:44.319Z,19.73
2022-10-28T07:38:48.720Z,19.87
2022-10-28T07:43:50.260Z,19.67
2022-10-28T07:48:51.723Z,19.93
2022-10-28T07:53:53.319Z,19.97
2022-10-28T07:58:54.769Z,19.79
2022-10-28T08:03:56.899Z,20.07
2022-10-28T08:08:58.376Z,20.18
2022-10-28T08:14:01.240Z,20.28
2022-10-28T08:19:06.813Z,20.04
2022-10-28T08:24:09.343Z,20.14
2022-10-28T08:29:12.062Z,20.22
2022-10-28T08:34:13.574Z,20.10
2022-10-28T08:39:15.094Z,20.35
2022-10-28T08:44:53.739Z,20.60
2022-10-28T08:49:56.573Z,20.27
2022-10-28T08:55:02.303Z,20.54
2022-10-28T09:00:06.149Z,20.37
2022-10-28T09:05:17.372Z,20.31
2022-10-28T09:10:25.452Z,20.48
2022-10-28T09:15:54.920Z,20.37
2022-10-28T09:20:56.900Z,20.73
2022-10-28T09:26:01.430Z,20.59
2022-10-28T09:31:05.408Z,20.54
2022-10-28T09:36:14.034Z,20.84
2022-10-28T09:41:18.568Z,20.79
2022-10-28T09:46:20.035Z,20.44
2022-10-28T09:51:34.905Z,20.58
2022-10-28T09:56:36.382Z,20.87
2022-10-28T10:01:38.342Z,20.87
2022-10-28T10:06:39.867Z,20.70
2022-10-28T10:11:43.552Z,20.87
2022-10-28T10:16:46.924Z,21.09
2022-10-28T10:21:49.602Z,21.08
2022-10-28T10:26:51.785Z,21.20
2022-10-28T10:32:18.554Z,21.27
2022-10-28T10:37:21.166Z,21.52
2022-10-28T10:42:24.795Z,21.59
2022-10-28T10:47:26.270Z,21.43
2022-10-28T10:52:29.545Z,21.43
2022-10-28T10:57:30.998Z,21.41
2022-10-28T11:02:39.452Z,21.35
2022-10-28T11:07:45.113Z,21.60
2022-10-28T11:12:57.475Z,21.70
2022-10-28T11:18:11.257Z,21.83
2022-10-28T11:23:46.035Z,21.89
2022-10-28T11:29:15.687Z,21.98
2022-10-28T11:34:26.823Z,21.94
2022-10-28T11:39:34.435Z,21.92
2022-10-28T11:44:59.897Z,21.82
2022-10-28T11:50:13.522Z,21.70
2022-10-28T11:55:37.684Z,21.83
2022-10-28T12:00:57.141Z,21.91
2022-10-28T12:06:09.732Z,21.97
2022-10-28T12:11:45.736Z,21.97
2022-10-28T12:16:57.309Z,21.75
2022-10-28T12:22:05.729Z,21.96
2022-10-28T12:27:17.050Z,21.88
2022-10-28T12:32:24.975Z,21.78
2022-10-28T12:37:44.678Z,21.88
2022-10-28T12:42:55.479Z,21.93
2022-10-28T12:48:16.759Z,21.94
2022-10-28T12:53:38.383Z,21.61
2022-10-28T12:58:50.379Z,21.59
2022-10-28T13:03:52.559Z,21.72
2022-10-28T13:09:12.015Z,21.70
2022-10-28T13:14:34.160Z,21.76
2022-10-28T13:20:00.520Z,21.69
2022-10-28T13:25:34.204Z,21.66
2022-10-28T13:30:35.674Z,21.91
2022-10-28T13:35:37.144Z,21.83
2022-10-28T13:40:38.433Z,21.79
2022-10-28T13:45:54.312Z,21.67
2022-10-28T13:51:11.072Z,21.77
2022-10-28T13:56:37.591Z,21.79
2022-10-28T14:01:41.936Z,21.59
2022-10-28T14:06:43.763Z,21.74
2022-10-28T14:11:45.240Z,21.96
2022-10-28T14:16:46.700Z,22.06
2022-10-28T14:22:01.719Z,21.96
2022-10-28T14:27:06.752Z,22.09
2022-10-28T14:32:31.549Z,21.99
2022-10-28T14:38:08.588Z,21.89
2022-10-28T14:43:34.781Z,21.68
2022-10-28T14:48:42.783Z,21.90
2022-10-28T14:53:45.036Z,21.80
2022-10-28T14:58:46.521Z,21.93
2022-10-28T15:03:50.559Z,21.94
2022-10-28T15:08:52.087Z,21.75
2022-10-28T15:13:53.662Z,21.84
2022-10-28T15:18:55.120Z,21.67
2022-10-28T15:24:00.863Z,21.43
2022-10-28T15:29:02.364Z,21.60
2022-10-28T15:34:03.833Z,21.72
2022-10-28T15:39:06.924Z,21.67
2022-10-28T15:44:23.785Z,21.59
2022-10-28T15:49:36.151Z,21.64
2022-10-28T15:54:37.602Z,21.69
2022-10-28T15:59:39.057Z,21.84
2022-10-28T16:04:42.352Z,21.86
2022-10-28T16:09:46.480Z,21.71
2022-10-28T16:14:55.639Z,21.75
2022-10-28T16:19:58.697Z,21.93
2022-10-28T16:25:00.240Z,21.52
2022-10-28T16:30:01.710Z,21.77
2022-10-28T16:35:03.955Z,21.59
2022-10-28T16:40:09.206Z,21.71
2022-10-28T16:45:21.421Z,21.30
2022-10-28T16:50:23.326Z,21.25
2022-10-28T16:55:24.800Z,21.21
2022-10-28T17:00:26.255Z,21.47
2022-10-28T17:05:27.714Z,21.45
2022-10-28T17:10:29.165Z,21.05
2022-10-28T17:15:30.678Z,20.24
2022-10-28T17:20:32.171Z,20.79
2022-10-28T17:25:33.725Z,20.64
2022-10-28T17:30:35.541Z,20.49
2022-10-28T17:35:37.041Z,20.53
2022-10-28T17:40:38.488Z,20.05
2022-10-28T17:45:39.988Z,19.80
2022-10-28T17:50:41.448Z,19.86
2022-10-28T17:55:43.015Z,18.68
2022-10-28T18:00:45.499Z,19.74
2022-10-28T18:05:46.964Z,19.87
2022-10-28T18:10:55.207Z,19.35
2022-10-28T18:16:06.356Z,19.79
2022-10-28T18:21:10.907Z,19.61
2022-10-28T18:26:12.837Z,19.46
2022-10-28T18:31:18.281Z,19.20
2022-10-28T18:36:23.486Z,20.02
2022-10-28T18:41:26.640Z,20.02
2022-10-28T18:46:28.707Z,20.06
2022-10-28T18:51:30.279Z,20.14
2022-10-28T18:56:34.032Z,19.79
2022-10-28T19:01:36.125Z,19.84
2022-10-28T19:06:39.051Z,19.84
2022-10-28T19:11:40.532Z,20.18
2022-10-28T19:16:42.019Z,20.36
2022-10-28T19:21:43.500Z,20.35
2022-10-28T19:26:44.992Z,20.30
2022-10-28T19:31:46.793Z,20.39
2022-10-28T19:36:48.243Z,20.32
2022-10-28T19:41:49.765Z,20.16
2022-10-28T19:46:51.272Z,20.02
2022-10-28T19:51:52.733Z,19.72
2022-10-28T19:56:54.191Z,20.05
2022-10-28T20:01:55.692Z,19.79
2022-10-28T20:06:58.758Z,19.50
2022-10-28T20:12:01.791Z,19.74
2022-10-28T20:17:06.558Z,19.79
2022-10-28T20:22:08.368Z,19.69
2022-10-28T20:27:09.891Z,19.39
2022-10-28T20:32:11.356Z,19.55
2022-10-28T20:37:12.823Z,19.77
2022-10-28T20:42:14.296Z,19.73
2022-10-28T20:47:17.634Z,19.84
2022-10-28T20:52:19.148Z,19.70
2022-10-28T20:57:20.618Z,19.68
2022-10-28T21:02:22.174Z,19.59
2022-10-28T21:07:23.823Z,19.41
2022-10-28T21:12:25.899Z,19.62
2022-10-28T21:17:27.350Z,19.88
2022-10-28T21:22:28.824Z,19.80
2022-10-28T21:27:30.393Z,19.48
2022-10-28T21:32:32.204Z,19.55
2022-10-28T21:37:34.010Z,19.70
2022-10-28T21:42:35.473Z,19.84
2022-10-28T21:47:36.941Z,19.75
2022-10-28T21:52:38.396Z,19.49
2022-10-28T21:57:39.846Z,19.71
2022-10-28T22:02:41.418Z,19.57
2022-10-28T22:07:43.014Z,19.64
2022-10-28T22:12:44.453Z,19.79
2022-10-28T22:17:45.938Z,19.72
2022-10-28T22:22:47.400Z,19.54
2022-10-28T22:27:48.851Z,19.51
2022-10-28T22:32:50.307Z,19.64
2022-10-28T22:37:51.901Z,19.34
2022-10-28T22:42:53.631Z,19.11
2022-10-28T22:47:55.367Z,19.10
2022-10-28T22:52:57.205Z,18.92
2022-10-28T22:57:58.912Z,18.72
2022-10-28T23:03:00.901Z,18.91
2022-10-28T23:08:02.502Z,19.03
2022-10-28T23:13:03.969Z,19.24
2022-10-28T23:18:05.441Z,19.29
2022-10-28T23:23:06.906Z,19.10
2022-10-28T23:28:08.363Z,19.08
2022-10-28T23:33:09.821Z,18.79
2022-10-28T23:38:16.300Z,18.63
2022-10-28T23:43:17.765Z,18.47
2022-10-28T23:48:19.347Z,18.28
2022-10-28T23:53:21.036Z,18.36
2022-10-28T23:58:22.710Z,18.22
